createdAt,value
2022-09-06T00:02:42.737Z,3.70
2022-09-06T00:07:43.908Z,4.50
2022-09-06T00:12:46.245Z,4.60
2022-09-06T00:17:48.698Z,5.40
2022-09-06T00:22:49.827Z,6.60
2022-09-06T00:32:57.101Z,5.80
2022-09-06T00:37:59.866Z,6.30
2022-09-06T00:43:01.211Z,8.10
2022-09-06T00:53:05.391Z,5.20
2022-09-06T00:58:07.002Z,5.70
2022-09-06T01:08:30.732Z,4.50
2022-09-06T01:18:53.177Z,5.60
2022-09-06T01:24:19.016Z,5.50
2022-09-06T01:29:57.889Z,5.30
2022-09-06T01:35:18.373Z,4.70
2022-09-06T01:40:20.231Z,6.00
2022-09-06T01:45:34.310Z,4.10
2022-09-06T01:50:51.582Z,4.50
2022-09-06T01:56:30.897Z,6.30
2022-09-06T02:01:47.641Z,4.80
2022-09-06T02:06:56.770Z,4.30
2022-09-06T02:12:01.312Z,4.50
2022-09-06T02:17:04.966Z,6.00
2022-09-06T02:22:10.738Z,6.10
2022-09-06T02:27:12.651Z,4.90
2022-09-06T02:32:21.116Z,5.10
2022-09-06T02:37:26.045Z,4.80
2022-09-06T02:42:27.536Z,5.00
2022-09-06T02:47:29.155Z,5.10
2022-09-06T02:52:30.369Z,5.30
2022-09-06T02:57:31.561Z,4.80
2022-09-06T03:02:32.929Z,4.90
2022-09-06T03:07:34.185Z,5.70
2022-09-06T03:12:35.874Z,4.60
2022-09-06T03:17:37.689Z,4.70
2022-09-06T03:22:39.747Z,6.20
2022-09-06T03:27:40.883Z,4.40
2022-09-06T03:32:42.066Z,6.10
2022-09-06T03:37:43.594Z,5.10
2022-09-06T03:42:45.855Z,6.20
2022-09-06T03:47:47.924Z,6.30
2022-09-06T03:52:49.152Z,6.10
2022-09-06T03:57:50.328Z,5.80
2022-09-06T04:02:51.517Z,5.20
2022-09-06T04:07:52.799Z,5.30
2022-09-06T04:17:55.221Z,6.90
2022-09-06T04:22:56.481Z,6.10
2022-09-06T04:38:01.342Z,5.40
2022-09-06T04:43:02.516Z,9.30
2022-09-06T04:48:04.066Z,7.40
2022-09-06T04:53:06.565Z,8.10
2022-09-06T04:58:08.080Z,9.50
2022-09-06T05:03:10.071Z,6.90
2022-09-06T05:08:11.276Z,6.50
2022-09-06T05:13:12.438Z,8.70
2022-09-06T05:18:16.158Z,7.50
2022-09-06T05:23:18.206Z,10.70
2022-09-06T05:28:19.884Z,8.20
2022-09-06T05:33:22.048Z,8.80
2022-09-06T05:38:25.286Z,8.10
2022-09-06T05:43:28.568Z,9.40
2022-09-06T05:53:41.024Z,7.50
2022-09-06T05:58:42.805Z,4.50
2022-09-06T06:04:04.305Z,3.70
2022-09-06T06:09:05.541Z,3.50
2022-09-06T06:14:07.660Z,4.90
2022-09-06T06:19:09.108Z,6.10
2022-09-06T06:24:10.367Z,4.00
2022-09-06T06:29:11.604Z,4.60
2022-09-06T06:34:13.431Z,4.40
2022-09-06T06:39:14.787Z,3.80
2022-09-06T06:44:15.978Z,3.70
2022-09-06T06:49:17.119Z,3.70
2022-09-06T06:54:18.661Z,4.20
2022-09-06T06:59:19.967Z,2.80
2022-09-06T07:04:22.375Z,3.80
2022-09-06T07:09:23.808Z,5.30
2022-09-06T07:14:24.981Z,5.70
2022-09-06T07:24:47.624Z,3.70
2022-09-06T07:29:48.816Z,4.60
2022-09-06T07:34:49.933Z,3.90
2022-09-06T07:39:52.057Z,3.00
2022-09-06T07:44:56.986Z,5.60
2022-09-06T07:55:19.639Z,3.10
2022-09-06T08:00:21.094Z,4.40
2022-09-06T08:10:43.356Z,2.40
2022-09-06T08:15:44.518Z,2.60
2022-09-06T08:20:46.116Z,3.20
2022-09-06T08:26:05.799Z,1.50
2022-09-06T08:31:12.605Z,3.50
2022-09-06T08:36:14.167Z,1.90
2022-09-06T08:41:37.541Z,2.40
2022-09-06T08:46:41.351Z,3.40
2022-09-06T08:51:49.825Z,1.90
2022-09-06T08:57:08.645Z,2.30
2022-09-06T09:02:17.124Z,2.30
2022-09-06T09:07:47.362Z,1.30
2022-09-06T09:12:49.601Z,3.00
2022-09-06T09:17:53.126Z,2.40
2022-09-06T09:22:55.002Z,2.60
2022-09-06T09:27:57.120Z,3.10
2022-09-06T09:32:58.710Z,4.00
2022-09-06T09:38:12.219Z,3.80
2022-09-06T09:43:22.855Z,1.60
2022-09-06T09:48:26.387Z,2.10
2022-09-06T09:53:28.657Z,2.40
2022-09-06T09:58:35.518Z,3.80
2022-09-06T10:08:58.842Z,2.90
2022-09-06T10:14:26.119Z,2.90
2022-09-06T10:19:47.437Z,1.20
2022-09-06T10:24:48.511Z,2.40
2022-09-06T10:30:01.089Z,1.70
2022-09-06T10:35:37.402Z,1.70
2022-09-06T10:41:00.695Z,1.30
2022-09-06T10:46:08.535Z,1.50
2022-09-06T10:51:33.708Z,2.90
2022-09-06T10:56:48.919Z,1.60
2022-09-06T11:02:11.786Z,3.40
2022-09-06T11:07:33.535Z,3.50
2022-09-06T11:12:53.521Z,2.90
2022-09-06T11:18:09.058Z,1.70
2022-09-06T11:23:35.277Z,2.60
2022-09-06T11:28:44.220Z,1.10
2022-09-06T11:33:48.307Z,7.00
2022-09-06T11:38:58.642Z,1.30
2022-09-06T11:44:00.222Z,2.10
2022-09-06T11:49:05.655Z,3.70
2022-09-06T11:54:09.748Z,1.80
2022-09-06T11:59:19.623Z,4.60
2022-09-06T12:04:22.927Z,2.40
2022-09-06T12:09:43.239Z,2.80
2022-09-06T12:14:48.379Z,1.20
2022-09-06T12:20:07.301Z,2.50
2022-09-06T12:25:19.400Z,1.40
2022-09-06T12:30:43.773Z,1.80
2022-09-06T12:36:02.292Z,1.60
2022-09-06T12:41:07.499Z,1.90
2022-09-06T12:46:08.832Z,1.00
2022-09-06T12:51:19.502Z,1.80
2022-09-06T12:56:22.545Z,1.30
2022-09-06T13:01:34.023Z,1.60
2022-09-06T13:06:42.047Z,1.30
2022-09-06T13:11:48.123Z,1.10
2022-09-06T13:16:52.362Z,4.30
2022-09-06T13:21:54.529Z,2.40
2022-09-06T13:26:55.878Z,2.60
2022-09-06T13:32:01.395Z,3.90
2022-09-06T13:37:06.520Z,0.90
2022-09-06T13:42:10.935Z,1.50
2022-09-06T13:47:12.140Z,1.10
2022-09-06T13:52:14.211Z,1.30
2022-09-06T13:57:16.212Z,4.20
2022-09-06T14:02:19.782Z,2.60
2022-09-06T14:07:21.066Z,2.80
2022-09-06T14:12:22.287Z,3.50
2022-09-06T14:17:23.444Z,1.20
2022-09-06T14:22:24.939Z,1.00
2022-09-06T14:27:26.543Z,1.80
2022-09-06T14:32:27.805Z,1.70
2022-09-06T14:37:29.059Z,2.10
2022-09-06T14:42:30.253Z,3.00
2022-09-06T14:47:32.605Z,2.80
2022-09-06T14:52:34.216Z,5.20
2022-09-06T14:57:35.740Z,3.60
2022-09-06T15:02:37.070Z,4.30
2022-09-06T15:07:38.459Z,3.70
2022-09-06T15:12:39.666Z,1.80
2022-09-06T15:17:41.339Z,1.50
2022-09-06T15:22:42.540Z,2.40
2022-09-06T15:27:43.733Z,2.60
2022-09-06T15:32:45.455Z,2.10
2022-09-06T15:37:47.808Z,2.10
2022-09-06T15:42:49.095Z,2.30
2022-09-06T15:47:51.363Z,3.50
2022-09-06T15:52:52.611Z,4.60
2022-09-06T15:57:53.796Z,1.60
2022-09-06T16:02:57.156Z,4.50
2022-09-06T16:07:59.792Z,5.40
2022-09-06T16:13:01.157Z,2.60
2022-09-06T16:18:04.618Z,4.00
2022-09-06T16:23:05.812Z,4.60
2022-09-06T16:28:08.296Z,3.40
2022-09-06T16:33:11.754Z,2.00
2022-09-06T16:38:14.518Z,6.30
2022-09-06T16:43:15.814Z,3.40
2022-09-06T16:48:16.974Z,3.80
2022-09-06T16:53:21.957Z,4.20
2022-09-06T16:58:23.616Z,4.50
2022-09-06T17:03:24.897Z,10.40
2022-09-06T17:08:30.749Z,5.10
2022-09-06T17:13:32.765Z,5.30
2022-09-06T17:18:35.301Z,3.40
2022-09-06T17:23:39.443Z,4.30
2022-09-06T17:28:40.711Z,2.90
2022-09-06T17:33:42.138Z,3.70
2022-09-06T17:38:44.886Z,3.50
2022-09-06T17:43:47.800Z,5.30
2022-09-06T17:48:51.202Z,5.80
2022-09-06T17:53:53.238Z,4.60
2022-09-06T17:58:58.717Z,7.00
2022-09-06T18:04:00.843Z,5.50
2022-09-06T18:09:08.949Z,7.30
2022-09-06T18:14:15.194Z,6.50
2022-09-06T18:19:18.134Z,3.70
2022-09-06T18:24:20.606Z,7.00
2022-09-06T18:29:22.257Z,9.10
2022-09-06T18:34:23.568Z,8.50
2022-09-06T18:39:24.914Z,8.90
2022-09-06T18:44:33.382Z,6.00
2022-09-06T18:49:35.225Z,6.70
2022-09-06T18:54:36.575Z,5.60
2022-09-06T18:59:37.847Z,5.90
2022-09-06T19:09:40.823Z,11.20
2022-09-06T19:14:41.995Z,11.50
2022-09-06T19:24:44.723Z,9.60
2022-09-06T19:34:48.452Z,4.00
2022-09-06T19:39:49.950Z,5.10
2022-09-06T19:44:51.162Z,6.70
2022-09-06T19:49:52.703Z,8.70
2022-09-06T19:59:54.969Z,9.20
2022-09-06T20:04:56.125Z,6.10
2022-09-06T20:14:58.727Z,3.40
2022-09-06T20:20:00.055Z,5.40
2022-09-06T20:30:02.804Z,8.20
2022-09-06T20:35:04.563Z,4.10
2022-09-06T20:40:07.499Z,2.80
2022-09-06T20:45:09.189Z,4.20
2022-09-06T20:50:11.436Z,4.70
2022-09-06T20:55:12.621Z,2.90
2022-09-06T21:05:15.898Z,6.20
2022-09-06T21:10:17.019Z,5.90
2022-09-06T21:15:18.298Z,7.50
2022-09-06T21:25:21.171Z,4.90
2022-09-06T21:30:22.292Z,5.60
2022-09-06T21:35:23.535Z,5.90
2022-09-06T21:40:24.662Z,3.60
2022-09-06T21:45:25.809Z,2.90
2022-09-06T21:50:26.935Z,4.70
2022-09-06T21:55:32.143Z,4.60
2022-09-06T22:00:34.204Z,5.00
2022-09-06T22:05:35.453Z,8.90
2022-09-06T22:10:36.660Z,7.30
2022-09-06T22:15:39.451Z,6.80
2022-09-06T22:20:40.613Z,5.90
2022-09-06T22:25:42.165Z,4.70
2022-09-06T22:30:43.397Z,5.60
2022-09-06T22:35:44.562Z,6.60
2022-09-06T22:40:45.745Z,4.70
2022-09-06T22:45:51.726Z,4.50
2022-09-06T22:50:53.274Z,6.20
2022-09-06T22:55:55.120Z,7.70
2022-09-06T23:01:03.764Z,5.70
2022-09-06T23:06:05.503Z,7.10
2022-09-06T23:11:12.031Z,4.10
2022-09-06T23:16:18.582Z,7.30
2022-09-06T23:21:22.209Z,3.90
2022-09-06T23:26:31.619Z,5.20
2022-09-06T23:31:33.367Z,4.40
2022-09-06T23:36:35.404Z,7.10
2022-09-06T23:41:36.521Z,5.30
2022-09-06T23:46:37.719Z,5.60
2022-09-06T23:51:39.227Z,7.80
2022-09-06T23:56:40.583Z,6.30
